CFS weather

Coffs Harbour Airport
Coffs Harbour, New South Wales, Australia

Public forecast

Using degrees Celsius for public forecast. Weather courtesy of forecast.io.

METAR (pilot weather report)

Closest report is Grafton Airport, 34.0 nm (62.9 km) N. Retrieved 2018/11/19 12:24 UTC (26 minutes ago):

YGFN 191224Z AUTO 20003KT 9999 // SCT055 BKN083 OVC120 18/12 Q1019

TAF (pilot weather forecast)

Closest forecast is Taree Airport, 99.1 nm (183.5 km) SSW. Retrieved 2018/11/19 14:03 UTC (0 seconds ago):

TAF TAF YTRE 191239Z 1914/2002 VRB03KT 9999 SCT040 FM192200 04010KT 9999 FEW050